Time;durP1;ratioP1;P1;durP2;ratioP2;P2;SDS_P1;SDS_P2;PMS_P1;PMS_P2;Temp;Humidity;BMP_temperature;BMP_pressure;BME280_temperature;BME280_humidity;BME280_pressure;Samples;Min_cycle;Max_cycle;Signal;HPM_P1;HPM_P2
2022/11/19 00:01:14;;;;;;;;;66.50;52.00;;;;;;;;5084381;28;11711;-77
2022/11/19 00:03:42;;;;;;;;;59.00;50.00;;;;;;;;5086082;28;11576;-77
2022/11/19 00:06:12;;;;;;;;;59.50;46.50;;;;;;;;5083379;28;12405;-77
2022/11/19 00:08:40;;;;;;;;;45.75;40.00;;;;;;;;5083027;28;11607;-77
2022/11/19 00:11:10;;;;;;;;;26.50;24.75;;;;;;;;5084605;28;11609;-77
2022/11/19 00:13:37;;;;;;;;;9.00;9.00;;;;;;;;5087232;28;11551;-78
2022/11/19 00:16:06;;;;;;;;;8.75;8.75;;;;;;;;5086978;28;11545;-78
2022/11/19 00:18:36;;;;;;;;;10.50;8.75;;;;;;;;5069050;28;11408;-77
2022/11/19 00:21:06;;;;;;;;;12.00;8.25;;;;;;;;5064117;28;12226;-78
2022/11/19 00:23:33;;;;;;;;;8.50;8.50;;;;;;;;5086390;28;11523;-77
2022/11/19 00:26:06;;;;;;;;;8.75;8.75;;;;;;;;5090912;28;12189;-77
2022/11/19 00:28:34;;;;;;;;;12.75;9.00;;;;;;;;5085407;28;11396;-78
2022/11/19 00:31:03;;;;;;;;;7.00;7.00;;;;;;;;5085727;28;11423;-78
2022/11/19 00:33:36;;;;;;;;;7.50;7.50;;;;;;;;5064352;28;11242;-78
2022/11/19 00:36:05;;;;;;;;;8.00;8.00;;;;;;;;5054266;28;11451;-77
2022/11/19 00:38:33;;;;;;;;;9.00;7.50;;;;;;;;5087255;28;11087;-77
2022/11/19 00:41:01;;;;;;;;;6.75;6.75;;;;;;;;5086370;28;11044;-78
2022/11/19 00:43:47;;;;;;;;;9.75;9.75;;;;;;;;5067417;28;11009;-78
2022/11/19 00:46:15;;;;;;;;;14.00;14.00;;;;;;;;5069333;28;11972;-79
2022/11/19 00:48:44;;;;;;;;;12.75;12.75;;;;;;;;5085331;28;11383;-77
2022/11/19 00:51:12;;;;;;;;;13.50;13.50;;;;;;;;5088471;28;11369;-78
2022/11/19 00:53:40;;;;;;;;;15.75;14.00;;;;;;;;5067228;28;11153;-78
2022/11/19 00:56:09;;;;;;;;;12.75;11.25;;;;;;;;5083362;28;11254;-77
2022/11/19 00:58:37;;;;;;;;;17.00;17.00;;;;;;;;5070356;28;11133;-77
2022/11/19 01:01:06;;;;;;;;;19.75;19.25;;;;;;;;5087775;28;11471;-77
2022/11/19 01:03:34;;;;;;;;;18.50;18.50;;;;;;;;5084451;28;11558;-78
2022/11/19 01:06:03;;;;;;;;;18.00;17.25;;;;;;;;5067443;28;11550;-78
2022/11/19 01:08:31;;;;;;;;;15.00;14.50;;;;;;;;5081241;28;11429;-77
2022/11/19 01:11:05;;;;;;;;;14.00;13.25;;;;;;;;5085389;28;11125;-77
2022/11/19 01:13:36;;;;;;;;;11.25;9.50;;;;;;;;5084448;28;11845;-77
2022/11/19 01:16:05;;;;;;;;;6.00;6.00;;;;;;;;5069911;28;10966;-77
2022/11/19 01:18:33;;;;;;;;;9.25;9.25;;;;;;;;5086582;28;11004;-77
2022/11/19 01:21:02;;;;;;;;;10.50;10.50;;;;;;;;5085332;28;11068;-78
2022/11/19 01:23:30;;;;;;;;;14.50;13.00;;;;;;;;5086190;28;11093;-78
2022/11/19 01:25:57;;;;;;;;;10.50;10.50;;;;;;;;5067718;28;11124;-78
2022/11/19 01:28:25;;;;;;;;;12.50;12.50;;;;;;;;5070480;28;11077;-78
2022/11/19 01:30:53;;;;;;;;;7.00;7.00;;;;;;;;5090430;28;11062;-77
2022/11/19 01:33:21;;;;;;;;;11.50;8.50;;;;;;;;5091290;28;11007;-78
2022/11/19 01:35:58;;;;;;;;;13.00;11.75;;;;;;;;5091982;28;10869;-78
2022/11/19 01:38:28;;;;;;;;;12.75;11.00;;;;;;;;5092978;28;11036;-77
2022/11/19 01:40:57;;;;;;;;;10.00;8.75;;;;;;;;5076763;28;11060;-78
2022/11/19 01:43:43;;;;;;;;;14.00;11.00;;;;;;;;5082877;28;10973;-77
2022/11/19 01:46:12;;;;;;;;;15.75;14.25;;;;;;;;5086696;28;11092;-77
2022/11/19 01:48:41;;;;;;;;;13.00;13.00;;;;;;;;5089861;28;11031;-77
2022/11/19 01:51:13;;;;;;;;;10.75;10.75;;;;;;;;5070056;28;10985;-78
2022/11/19 01:53:44;;;;;;;;;9.00;9.00;;;;;;;;5086802;28;10921;-78
2022/11/19 01:56:12;;;;;;;;;10.00;9.50;;;;;;;;5071553;28;10986;-78
2022/11/19 01:58:42;;;;;;;;;11.25;10.75;;;;;;;;5086295;28;12097;-78
2022/11/19 02:01:10;;;;;;;;;14.00;14.00;;;;;;;;5086521;28;11841;-78
2022/11/19 02:03:39;;;;;;;;;14.25;12.75;;;;;;;;5087557;28;11026;-79
2022/11/19 02:06:08;;;;;;;;;16.00;13.00;;;;;;;;5091156;28;10839;-78
2022/11/19 02:08:40;;;;;;;;;17.00;14.00;;;;;;;;5069626;28;11090;-78
2022/11/19 02:11:32;;;;;;;;;15.75;15.75;;;;;;;;5084643;28;11142;-78
2022/11/19 02:14:10;;;;;;;;;15.50;13.00;;;;;;;;5071698;28;11859;-77
2022/11/19 02:16:52;;;;;;;;;14.25;12.75;;;;;;;;5066378;28;11740;-78
2022/11/19 02:19:52;;;;;;;;;12.00;12.00;;;;;;;;5086259;28;12952;-79
2022/11/19 02:22:37;;;;;;;;;14.00;14.00;;;;;;;;5088593;28;10857;-78
2022/11/19 02:25:11;;;;;;;;;13.00;11.00;;;;;;;;5091805;28;10948;-77
2022/11/19 02:28:21;;;;;;;;;9.25;9.25;;;;;;;;5086061;28;10768;-78
2022/11/19 02:30:52;;;;;;;;;11.00;9.25;;;;;;;;5067761;28;10842;-78
2022/11/19 02:33:24;;;;;;;;;13.75;11.00;;;;;;;;5086398;28;10750;-78
2022/11/19 02:35:57;;;;;;;;;13.50;11.25;;;;;;;;5088454;28;10793;-78
2022/11/19 02:38:29;;;;;;;;;14.50;13.00;;;;;;;;5084209;28;10860;-78
2022/11/19 02:41:01;;;;;;;;;12.25;11.25;;;;;;;;5069695;28;11708;-77
2022/11/19 02:43:33;;;;;;;;;12.75;10.75;;;;;;;;5087677;28;10960;-77
2022/11/19 02:46:06;;;;;;;;;8.75;8.75;;;;;;;;5092671;28;11992;-76
2022/11/19 02:48:36;;;;;;;;;12.50;10.50;;;;;;;;5090033;28;10973;-77
2022/11/19 02:51:04;;;;;;;;;9.75;9.75;;;;;;;;5084577;28;11784;-76
2022/11/19 02:53:32;;;;;;;;;13.00;13.00;;;;;;;;5071116;28;11113;-76
2022/11/19 02:56:15;;;;;;;;;16.25;13.00;;;;;;;;5076312;28;10930;-79
2022/11/19 03:04:31;;;;;;;;;13.25;13.25;;;;;;;;5088029;28;11125;-80
2022/11/19 03:07:02;;;;;;;;;9.25;9.25;;;;;;;;5071361;28;11973;-77
2022/11/19 03:09:32;;;;;;;;;15.50;10.75;;;;;;;;5086398;28;11041;-76
2022/11/19 03:12:08;;;;;;;;;15.00;12.75;;;;;;;;5088092;28;11065;-76
2022/11/19 03:17:39;;;;;;;;;8.75;8.75;;;;;;;;5081334;28;11946;-76
2022/11/19 03:20:16;;;;;;;;;7.75;7.75;;;;;;;;5090050;28;10963;-76
2022/11/19 03:22:52;;;;;;;;;6.25;6.00;;;;;;;;5085179;28;10936;-76
2022/11/19 03:25:23;;;;;;;;;9.50;9.50;;;;;;;;5093290;28;11628;-75
2022/11/19 03:27:54;;;;;;;;;9.00;9.00;;;;;;;;5086494;28;11047;-75
2022/11/19 03:30:22;;;;;;;;;9.50;8.25;;;;;;;;5084658;28;11091;-78
2022/11/19 03:32:53;;;;;;;;;9.50;7.75;;;;;;;;5068208;28;11710;-78
2022/11/19 03:35:25;;;;;;;;;5.00;4.50;;;;;;;;5073413;28;10732;-79
2022/11/19 03:37:54;;;;;;;;;7.50;6.00;;;;;;;;5067746;28;10818;-78
2022/11/19 03:40:25;;;;;;;;;5.25;5.25;;;;;;;;5057200;28;10737;-82
2022/11/19 03:42:55;;;;;;;;;4.75;4.75;;;;;;;;5068892;28;10620;-78
2022/11/19 03:45:25;;;;;;;;;3.75;3.75;;;;;;;;5082551;28;10686;-77
2022/11/19 03:47:56;;;;;;;;;8.00;5.00;;;;;;;;5079728;28;10807;-77
2022/11/19 03:50:29;;;;;;;;;2.00;2.00;;;;;;;;5059763;28;10683;-78
2022/11/19 03:52:57;;;;;;;;;4.00;4.00;;;;;;;;5067248;28;10531;-78
2022/11/19 03:55:31;;;;;;;;;1.00;1.00;;;;;;;;5069355;28;10598;-78
2022/11/19 03:58:03;;;;;;;;;1.00;1.00;;;;;;;;5081186;28;10495;-78
2022/11/19 04:00:31;;;;;;;;;1.00;1.00;;;;;;;;5062798;28;10427;-78
2022/11/19 04:03:00;;;;;;;;;2.00;2.00;;;;;;;;5083112;28;10575;-78
2022/11/19 04:05:28;;;;;;;;;1.00;1.00;;;;;;;;5086819;28;10386;-78
2022/11/19 04:07:56;;;;;;;;;3.00;2.00;;;;;;;;5064011;28;10271;-77
2022/11/19 04:10:23;;;;;;;;;2.00;2.00;;;;;;;;5084766;28;10370;-78
2022/11/19 04:12:51;;;;;;;;;3.00;2.00;;;;;;;;5085984;28;10265;-77
2022/11/19 04:15:19;;;;;;;;;2.00;2.00;;;;;;;;5067555;28;10304;-78
2022/11/19 04:17:47;;;;;;;;;2.00;2.00;;;;;;;;5085744;28;11101;-77
2022/11/19 04:20:17;;;;;;;;;2.00;2.00;;;;;;;;5079557;28;11050;-78
2022/11/19 04:22:44;;;;;;;;;2.00;2.00;;;;;;;;5063541;28;10258;-78
2022/11/19 04:25:12;;;;;;;;;1.25;1.25;;;;;;;;5072112;28;10323;-78
2022/11/19 04:27:40;;;;;;;;;2.75;2.75;;;;;;;;5064528;28;10206;-78
2022/11/19 04:30:09;;;;;;;;;2.00;2.00;;;;;;;;5066901;28;10264;-79
2022/11/19 04:32:37;;;;;;;;;2.50;2.50;;;;;;;;5048693;28;10157;-78
2022/11/19 04:35:20;;;;;;;;;2.25;2.25;;;;;;;;5064095;28;10142;-78
2022/11/19 04:37:53;;;;;;;;;3.00;3.00;;;;;;;;5083034;28;10301;-78
2022/11/19 04:40:21;;;;;;;;;3.00;3.00;;;;;;;;5064431;28;10240;-78
2022/11/19 04:42:49;;;;;;;;;5.50;3.75;;;;;;;;5085492;28;10260;-77
2022/11/19 04:45:16;;;;;;;;;3.00;3.00;;;;;;;;5065055;28;10312;-78
2022/11/19 04:47:44;;;;;;;;;3.00;3.00;;;;;;;;5081259;28;10334;-78
2022/11/19 04:50:11;;;;;;;;;8.25;7.25;;;;;;;;5064521;28;10243;-78
2022/11/19 04:52:39;;;;;;;;;4.75;4.00;;;;;;;;5085097;28;10462;-79
2022/11/19 04:55:10;;;;;;;;;8.75;7.50;;;;;;;;5083389;28;10416;-78
2022/11/19 04:57:37;;;;;;;;;3.75;3.75;;;;;;;;5081477;28;10426;-79
2022/11/19 05:00:07;;;;;;;;;8.25;7.00;;;;;;;;5085840;28;10473;-78
2022/11/19 05:02:34;;;;;;;;;8.00;4.00;;;;;;;;5083418;28;10381;-77
2022/11/19 05:05:02;;;;;;;;;6.25;6.25;;;;;;;;5069660;28;11329;-75
2022/11/19 05:07:29;;;;;;;;;9.00;7.50;;;;;;;;5069376;28;10517;-78
2022/11/19 05:09:57;;;;;;;;;7.75;7.75;;;;;;;;5083160;28;10586;-77
2022/11/19 05:12:26;;;;;;;;;8.00;8.00;;;;;;;;5052601;28;10477;-78
2022/11/19 05:14:55;;;;;;;;;7.00;7.00;;;;;;;;5064795;28;10692;-78
2022/11/19 05:17:22;;;;;;;;;7.50;7.50;;;;;;;;5069303;28;10624;-78
2022/11/19 05:19:50;;;;;;;;;6.50;6.50;;;;;;;;5086134;28;10630;-78
2022/11/19 05:22:18;;;;;;;;;4.75;3.25;;;;;;;;5082071;28;10531;-78
2022/11/19 05:24:45;;;;;;;;;7.75;7.50;;;;;;;;5064975;28;10596;-77
2022/11/19 05:27:13;;;;;;;;;8.50;7.50;;;;;;;;5087518;28;10799;-79
2022/11/19 05:29:42;;;;;;;;;9.00;7.00;;;;;;;;5087641;28;10622;-81
2022/11/19 05:32:09;;;;;;;;;9.50;8.75;;;;;;;;5070046;28;10676;-79
2022/11/19 05:34:37;;;;;;;;;12.25;7.00;;;;;;;;5063802;28;10527;-79
2022/11/19 05:37:04;;;;;;;;;4.00;4.00;;;;;;;;5083865;28;10602;-78
2022/11/19 05:39:32;;;;;;;;;7.50;7.25;;;;;;;;5064491;28;11313;-78
2022/11/19 05:42:00;;;;;;;;;21.25;14.75;;;;;;;;5068646;28;10420;-77
2022/11/19 05:44:28;;;;;;;;;9.00;9.00;;;;;;;;5065251;28;10810;-77
2022/11/19 05:46:58;;;;;;;;;7.25;7.25;;;;;;;;5049874;28;10675;-77
2022/11/19 05:49:27;;;;;;;;;8.25;8.00;;;;;;;;5066879;28;10627;-78
2022/11/19 05:51:54;;;;;;;;;7.00;7.00;;;;;;;;5062810;28;10592;-78
2022/11/19 05:54:22;;;;;;;;;14.00;11.25;;;;;;;;5036109;28;11177;-78
2022/11/19 05:56:50;;;;;;;;;9.00;9.00;;;;;;;;5064911;28;10711;-78
2022/11/19 05:59:18;;;;;;;;;11.50;9.75;;;;;;;;5053237;28;11277;-77
2022/11/19 06:01:46;;;;;;;;;9.50;8.25;;;;;;;;5063538;28;10771;-77
2022/11/19 06:04:15;;;;;;;;;17.50;16.50;;;;;;;;5065537;28;10667;-76
2022/11/19 06:06:43;;;;;;;;;9.00;9.00;;;;;;;;5051546;28;10986;-77
2022/11/19 06:09:10;;;;;;;;;11.75;10.25;;;;;;;;5052468;28;10815;-78
2022/11/19 06:11:50;;;;;;;;;8.75;8.75;;;;;;;;5065667;28;10967;-76
2022/11/19 06:14:20;;;;;;;;;9.50;8.75;;;;;;;;5065787;28;10675;-78
2022/11/19 06:16:48;;;;;;;;;10.25;10.25;;;;;;;;5070522;28;10642;-77
2022/11/19 06:19:17;;;;;;;;;8.00;8.00;;;;;;;;5070957;28;10835;-78
2022/11/19 06:21:45;;;;;;;;;9.25;9.25;;;;;;;;5068045;28;10724;-78
2022/11/19 06:24:13;;;;;;;;;12.25;10.25;;;;;;;;5072286;28;10969;-79
2022/11/19 06:26:40;;;;;;;;;10.00;10.00;;;;;;;;5072813;28;10839;-78
2022/11/19 06:29:08;;;;;;;;;9.50;7.50;;;;;;;;5072025;28;10812;-78
2022/11/19 06:31:38;;;;;;;;;9.00;9.00;;;;;;;;5057029;28;10849;-77
2022/11/19 06:34:06;;;;;;;;;10.00;8.50;;;;;;;;5071793;28;10803;-79
2022/11/19 06:36:36;;;;;;;;;11.00;9.00;;;;;;;;5068751;28;10649;-80
2022/11/19 06:39:04;;;;;;;;;9.50;7.75;;;;;;;;5088435;28;10868;-77
2022/11/19 06:41:32;;;;;;;;;11.25;11.25;;;;;;;;5089979;28;10904;-78
2022/11/19 06:43:59;;;;;;;;;16.00;14.75;;;;;;;;5088621;28;10943;-78
2022/11/19 06:46:27;;;;;;;;;12.00;12.00;;;;;;;;5086073;28;11188;-78
2022/11/19 06:48:55;;;;;;;;;13.25;11.25;;;;;;;;5066925;28;10945;-78
2022/11/19 06:51:23;;;;;;;;;9.25;9.25;;;;;;;;5070424;28;11157;-78
2022/11/19 06:53:53;;;;;;;;;20.75;20.75;;;;;;;;5082018;28;11234;-78
2022/11/19 06:56:20;;;;;;;;;17.25;16.00;;;;;;;;5084142;28;12376;-78
2022/11/19 06:58:52;;;;;;;;;15.00;13.75;;;;;;;;5089656;28;12244;-78
2022/11/19 07:01:19;;;;;;;;;14.50;13.00;;;;;;;;5088274;28;11173;-78
2022/11/19 07:03:49;;;;;;;;;13.00;10.00;;;;;;;;5089046;28;11254;-78
2022/11/19 07:06:17;;;;;;;;;14.50;13.75;;;;;;;;5070536;28;11149;-78
2022/11/19 07:08:54;;;;;;;;;13.50;13.50;;;;;;;;5086443;28;11044;-78
2022/11/19 07:11:28;;;;;;;;;14.00;12.75;;;;;;;;5086892;28;11995;-78
2022/11/19 07:13:57;;;;;;;;;13.00;12.50;;;;;;;;5069657;28;11165;-78
2022/11/19 07:16:26;;;;;;;;;13.75;12.00;;;;;;;;5086147;28;11101;-79
2022/11/19 07:18:53;;;;;;;;;10.50;9.00;;;;;;;;5069869;28;11928;-78
2022/11/19 07:21:21;;;;;;;;;15.50;12.75;;;;;;;;5089096;28;11070;-79
2022/11/19 07:23:48;;;;;;;;;12.00;12.00;;;;;;;;5089713;28;11988;-79
2022/11/19 07:26:18;;;;;;;;;10.50;8.50;;;;;;;;5087610;28;11154;-79
2022/11/19 07:28:45;;;;;;;;;5.25;5.25;;;;;;;;5069227;28;11072;-79
2022/11/19 07:31:13;;;;;;;;;16.75;10.00;;;;;;;;5085761;28;11174;-79
2022/11/19 07:33:41;;;;;;;;;7.50;7.50;;;;;;;;5085005;28;11137;-79
2022/11/19 07:36:13;;;;;;;;;5.50;5.50;;;;;;;;5090147;28;10953;-78
2022/11/19 07:38:41;;;;;;;;;5.25;5.25;;;;;;;;5072390;28;10850;-79
2022/11/19 07:43:51;;;;;;;;;4.50;4.50;;;;;;;;5068189;28;10737;-79
2022/11/19 07:46:22;;;;;;;;;3.00;3.00;;;;;;;;5046377;28;10880;-79
2022/11/19 07:48:54;;;;;;;;;4.00;4.00;;;;;;;;5069641;28;10887;-78
2022/11/19 07:51:22;;;;;;;;;6.00;4.00;;;;;;;;5048598;28;10667;-79
2022/11/19 07:53:51;;;;;;;;;6.00;3.75;;;;;;;;5068570;28;11468;-79
2022/11/19 07:56:20;;;;;;;;;3.25;3.25;;;;;;;;5064472;28;11547;-78
2022/11/19 07:58:47;;;;;;;;;3.00;3.00;;;;;;;;5064258;28;10769;-78
2022/11/19 08:01:19;;;;;;;;;4.50;3.00;;;;;;;;5047042;28;10730;-78
2022/11/19 08:03:47;;;;;;;;;3.00;3.00;;;;;;;;5065379;28;11656;-79
2022/11/19 08:06:17;;;;;;;;;2.00;2.00;;;;;;;;5048310;28;10683;-80
2022/11/19 08:08:49;;;;;;;;;4.00;3.50;;;;;;;;5064083;28;10755;-80
2022/11/19 08:11:18;;;;;;;;;3.00;3.00;;;;;;;;5062480;28;10615;-80
2022/11/19 08:13:45;;;;;;;;;4.00;4.00;;;;;;;;5048145;28;10565;-74
2022/11/19 08:18:10;;;;;;;;;3.00;3.00;;;;;;;;5065470;28;10773;-77
2022/11/19 08:19:02;;;;;;;;;3.00;3.00;;;;;;;;5052958;28;10510;-78
2022/11/19 08:21:30;;;;;;;;;3.00;3.00;;;;;;;;5067506;28;10697;-78
2022/11/19 08:24:01;;;;;;;;;3.75;3.75;;;;;;;;5063348;28;10682;-79
2022/11/19 08:26:28;;;;;;;;;4.25;4.25;;;;;;;;5050610;28;10748;-77
2022/11/19 08:28:56;;;;;;;;;5.00;5.00;;;;;;;;5064749;28;10718;-78
2022/11/19 08:31:29;;;;;;;;;4.75;4.75;;;;;;;;5071189;28;10592;-77
2022/11/19 08:33:59;;;;;;;;;5.00;5.00;;;;;;;;5076303;28;10694;-78
2022/11/19 08:36:29;;;;;;;;;10.25;10.00;;;;;;;;5068065;28;10652;-77
2022/11/19 08:38:57;;;;;;;;;6.50;6.50;;;;;;;;5089758;28;10747;-77
2022/11/19 08:44:10;;;;;;;;;5.00;5.00;;;;;;;;5093468;28;10685;-77
2022/11/19 08:46:38;;;;;;;;;7.25;7.25;;;;;;;;5072401;28;10656;-77
2022/11/19 08:49:06;;;;;;;;;7.00;7.00;;;;;;;;5091166;28;10420;-77
2022/11/19 08:51:38;;;;;;;;;9.00;7.00;;;;;;;;5093878;28;10627;-77
2022/11/19 08:54:06;;;;;;;;;7.25;5.00;;;;;;;;5074900;28;10479;-77
2022/11/19 08:56:33;;;;;;;;;7.00;7.00;;;;;;;;5071314;28;10563;-77
2022/11/19 08:59:01;;;;;;;;;4.25;3.50;;;;;;;;5093037;28;11257;-77
2022/11/19 09:01:28;;;;;;;;;7.00;5.00;;;;;;;;5076532;28;10539;-77
2022/11/19 09:03:56;;;;;;;;;9.00;8.25;;;;;;;;5088486;28;10381;-80
2022/11/19 09:06:23;;;;;;;;;7.00;7.00;;;;;;;;5082875;28;10392;-80
2022/11/19 09:08:52;;;;;;;;;6.00;6.00;;;;;;;;5085586;28;10399;-79
2022/11/19 09:11:20;;;;;;;;;4.50;4.50;;;;;;;;5083930;28;10456;-79
2022/11/19 09:13:49;;;;;;;;;11.00;5.00;;;;;;;;5085240;28;10372;-78
2022/11/19 09:16:18;;;;;;;;;5.00;5.00;;;;;;;;5081953;28;10472;-80
2022/11/19 09:18:46;;;;;;;;;2.25;2.25;;;;;;;;5096717;28;10449;-83
2022/11/19 09:21:13;;;;;;;;;12.00;7.00;;;;;;;;5093032;28;10319;-83
2022/11/19 09:23:42;;;;;;;;;4.00;4.00;;;;;;;;5069354;28;10502;-80
2022/11/19 09:26:14;;;;;;;;;6.75;5.00;;;;;;;;5082543;28;10256;-80
2022/11/19 09:28:42;;;;;;;;;6.50;6.50;;;;;;;;5087519;28;10251;-79
2022/11/19 09:31:11;;;;;;;;;6.00;6.00;;;;;;;;5083409;28;10468;-79
2022/11/19 09:33:42;;;;;;;;;6.00;6.00;;;;;;;;5084192;28;10235;-78
2022/11/19 09:36:10;;;;;;;;;9.50;8.00;;;;;;;;5089218;28;10379;-82
2022/11/19 09:38:39;;;;;;;;;6.50;6.50;;;;;;;;5084507;28;10333;-82
2022/11/19 09:41:24;;;;;;;;;5.25;4.75;;;;;;;;5086634;28;10340;-83
2022/11/19 09:44:01;;;;;;;;;8.00;4.50;;;;;;;;5086119;28;10397;-83
2022/11/19 09:46:33;;;;;;;;;7.50;7.25;;;;;;;;5066192;28;10284;-81
2022/11/19 09:49:03;;;;;;;;;2.00;2.00;;;;;;;;5088423;28;10365;-82
2022/11/19 09:51:33;;;;;;;;;5.00;5.00;;;;;;;;5088106;28;10184;-84
2022/11/19 09:54:06;;;;;;;;;5.00;5.00;;;;;;;;5090667;28;10045;-79
2022/11/19 09:56:37;;;;;;;;;4.25;3.50;;;;;;;;5092959;28;10244;-81
2022/11/19 09:59:11;;;;;;;;;8.25;8.25;;;;;;;;5091124;28;10101;-81
2022/11/19 10:01:39;;;;;;;;;7.50;5.00;;;;;;;;5085404;28;10155;-81
2022/11/19 10:04:06;;;;;;;;;3.00;3.00;;;;;;;;5073610;28;10016;-80
2022/11/19 10:06:43;;;;;;;;;10.75;9.00;;;;;;;;5088627;28;9981;-81
2022/11/19 10:09:20;;;;;;;;;9.25;8.00;;;;;;;;5087343;28;10010;-82
2022/11/19 10:11:57;;;;;;;;;4.25;4.25;;;;;;;;5091169;28;9835;-81
2022/11/19 10:14:56;;;;;;;;;6.50;6.50;;;;;;;;5070093;28;9877;-80
2022/11/19 10:17:35;;;;;;;;;4.00;4.00;;;;;;;;5086982;28;9836;-83
2022/11/19 10:20:15;;;;;;;;;6.00;6.00;;;;;;;;5073623;28;9756;-78
2022/11/19 10:22:49;;;;;;;;;5.00;5.00;;;;;;;;5086020;28;9472;-81
2022/11/19 10:25:18;;;;;;;;;8.75;8.75;;;;;;;;5089174;28;9313;-80
2022/11/19 10:27:51;;;;;;;;;7.33;7.33;;;;;;;;5093352;28;9525;-82
2022/11/19 10:30:20;;;;;;;;;7.33;5.67;;;;;;;;5089392;28;9278;-82
2022/11/19 10:33:00;;;;;;;;;4.00;4.00;;;;;;;;5091397;28;9286;-84
2022/11/19 10:35:30;;;;;;;;;6.00;6.00;;;;;;;;5078736;28;9091;-83
2022/11/19 10:38:00;;;;;;;;;9.00;6.00;;;;;;;;5078497;28;9294;-80
2022/11/19 10:40:33;;;;;;;;;8.67;5.67;;;;;;;;5052265;28;9067;-80
2022/11/19 10:43:14;;;;;;;;;5.00;5.00;;;;;;;;5047252;28;9061;-79
2022/11/19 10:45:42;;;;;;;;;8.00;8.00;;;;;;;;5071223;28;8927;-80
2022/11/19 10:48:14;;;;;;;;;5.00;5.00;;;;;;;;5049481;28;9021;-79
2022/11/19 10:50:42;;;;;;;;;5.00;5.00;;;;;;;;5048162;28;8926;-79
2022/11/19 10:53:16;;;;;;;;;5.67;4.33;;;;;;;;5065526;28;8997;-80
2022/11/19 10:55:47;;;;;;;;;2.75;2.75;;;;;;;;5039696;28;8940;-80
2022/11/19 10:58:23;;;;;;;;;3.75;3.00;;;;;;;;5065460;28;8833;-80
2022/11/19 11:00:54;;;;;;;;;5.00;5.00;;;;;;;;5048821;28;8833;-80
2022/11/19 11:03:26;;;;;;;;;3.00;3.00;;;;;;;;5046178;28;8929;-79
2022/11/19 11:06:00;;;;;;;;;4.00;2.00;;;;;;;;5065221;28;8871;-79
2022/11/19 11:08:28;;;;;;;;;2.00;2.00;;;;;;;;5068133;28;8881;-79
2022/11/19 11:10:58;;;;;;;;;4.00;2.75;;;;;;;;5070558;28;8911;-79
2022/11/19 11:16:42;;;;;;;;;2.00;2.00;;;;;;;;5053309;28;8838;-79
2022/11/19 11:19:13;;;;;;;;;2.00;2.00;;;;;;;;5047101;28;8872;-79
2022/11/19 11:21:42;;;;;;;;;2.00;2.00;;;;;;;;5048239;28;8832;-79
2022/11/19 11:24:11;;;;;;;;;1.75;1.75;;;;;;;;5048749;28;9714;-78
2022/11/19 11:26:39;;;;;;;;;1.00;1.00;;;;;;;;5066128;28;8953;-79
2022/11/19 11:29:25;;;;;;;;;1.00;1.00;;;;;;;;5065428;28;8879;-78
2022/11/19 11:31:53;;;;;;;;;2.50;1.00;;;;;;;;5065425;28;8960;-78
2022/11/19 11:34:30;;;;;;;;;2.00;0.50;;;;;;;;5050149;28;8864;-78
2022/11/19 11:36:58;;;;;;;;;0.00;0.00;;;;;;;;5049005;28;8854;-77
2022/11/19 11:39:28;;;;;;;;;1.25;1.25;;;;;;;;5087490;28;9048;-78
2022/11/19 11:41:57;;;;;;;;;1.00;1.00;;;;;;;;5083322;28;8858;-78
2022/11/19 11:44:28;;;;;;;;;1.00;1.00;;;;;;;;5086075;28;8818;-78
2022/11/19 11:46:58;;;;;;;;;0.00;0.00;;;;;;;;5065590;28;8811;-78
2022/11/19 11:49:30;;;;;;;;;0.00;0.00;;;;;;;;5083594;28;8870;-78
2022/11/19 11:52:05;;;;;;;;;0.50;0.50;;;;;;;;5085285;28;8846;-78
2022/11/19 11:54:33;;;;;;;;;0.00;0.00;;;;;;;;5081428;28;9577;-79
2022/11/19 11:57:15;;;;;;;;;0.00;0.00;;;;;;;;5069046;28;8863;-78
2022/11/19 11:59:46;;;;;;;;;0.00;0.00;;;;;;;;5083786;28;8834;-78
2022/11/19 12:02:21;;;;;;;;;0.00;0.00;;;;;;;;5067784;28;8850;-78
2022/11/19 12:04:51;;;;;;;;;0.50;0.00;;;;;;;;5085007;28;8917;-78
2022/11/19 12:07:38;;;;;;;;;0.75;0.75;;;;;;;;5085216;28;8953;-79
2022/11/19 12:10:15;;;;;;;;;0.00;0.00;;;;;;;;5085501;28;8839;-78
2022/11/19 12:12:48;;;;;;;;;0.00;0.00;;;;;;;;5087336;28;8856;-79
2022/11/19 12:15:24;;;;;;;;;1.00;1.00;;;;;;;;5086551;28;9696;-78
2022/11/19 12:17:59;;;;;;;;;0.00;0.00;;;;;;;;5080370;28;8858;-79
2022/11/19 12:20:35;;;;;;;;;0.50;0.00;;;;;;;;5085182;28;9667;-79
2022/11/19 12:23:15;;;;;;;;;0.00;0.00;;;;;;;;5086940;28;8853;-78
2022/11/19 12:25:48;;;;;;;;;1.00;1.00;;;;;;;;5083039;28;8892;-79
2022/11/19 12:28:28;;;;;;;;;0.75;0.75;;;;;;;;5081178;28;8815;-78
2022/11/19 12:31:05;;;;;;;;;0.00;0.00;;;;;;;;5068373;28;8868;-78
2022/11/19 12:33:48;;;;;;;;;1.00;1.00;;;;;;;;5082092;28;8822;-78
2022/11/19 12:36:23;;;;;;;;;1.00;1.00;;;;;;;;5086681;28;9678;-78
2022/11/19 12:38:57;;;;;;;;;1.00;1.00;;;;;;;;5068470;28;8863;-78
2022/11/19 12:41:54;;;;;;;;;1.00;1.00;;;;;;;;5069199;28;8830;-78
2022/11/19 12:44:31;;;;;;;;;1.25;0.00;;;;;;;;5087057;28;8854;-78
2022/11/19 12:47:07;;;;;;;;;1.00;1.00;;;;;;;;5084277;28;8842;-77
2022/11/19 12:50:00;;;;;;;;;1.75;1.00;;;;;;;;5082675;28;8877;-78
2022/11/19 12:52:52;;;;;;;;;1.25;1.25;;;;;;;;5083804;28;8885;-78
2022/11/19 12:55:28;;;;;;;;;0.00;0.00;;;;;;;;5069924;28;8854;-77
2022/11/19 12:58:05;;;;;;;;;1.00;1.00;;;;;;;;5088270;28;8815;-78
2022/11/19 13:00:33;;;;;;;;;0.25;0.25;;;;;;;;5083360;28;8834;-78
2022/11/19 13:03:13;;;;;;;;;0.75;0.75;;;;;;;;5082879;28;8838;-78
2022/11/19 13:05:46;;;;;;;;;2.25;2.25;;;;;;;;5082891;28;8915;-79
2022/11/19 13:08:18;;;;;;;;;0.00;0.00;;;;;;;;5085788;28;8842;-77
2022/11/19 13:10:49;;;;;;;;;0.25;0.25;;;;;;;;5087165;28;8827;-79
2022/11/19 13:13:19;;;;;;;;;0.75;0.75;;;;;;;;5085702;28;8916;-78
2022/11/19 13:15:50;;;;;;;;;1.67;1.00;;;;;;;;5086384;28;8861;-78
2022/11/19 13:18:20;;;;;;;;;1.00;1.00;;;;;;;;5082662;28;9041;-78
2022/11/19 13:20:50;;;;;;;;;1.00;1.00;;;;;;;;5083163;28;8830;-78
2022/11/19 13:23:22;;;;;;;;;1.00;1.00;;;;;;;;5084789;28;8946;-78
2022/11/19 13:25:57;;;;;;;;;1.00;1.00;;;;;;;;5090457;28;9095;-78
2022/11/19 13:28:31;;;;;;;;;1.00;1.00;;;;;;;;5089736;28;9688;-78
2022/11/19 13:31:04;;;;;;;;;0.00;0.00;;;;;;;;5071853;28;9123;-77
2022/11/19 13:33:39;;;;;;;;;1.00;1.00;;;;;;;;5088135;28;9110;-78
2022/11/19 13:36:13;;;;;;;;;1.00;1.00;;;;;;;;5089704;28;9085;-79
2022/11/19 13:38:45;;;;;;;;;0.00;0.00;;;;;;;;5087840;28;9157;-78
2022/11/19 13:41:16;;;;;;;;;0.67;0.67;;;;;;;;5085110;28;9059;-78
2022/11/19 13:46:36;;;;;;;;;0.00;0.00;;;;;;;;5077656;28;9140;-78
2022/11/19 13:49:08;;;;;;;;;0.00;0.00;;;;;;;;5070993;28;9826;-78
2022/11/19 13:51:38;;;;;;;;;0.33;0.33;;;;;;;;5090128;28;9151;-78
2022/11/19 13:54:08;;;;;;;;;0.00;0.00;;;;;;;;5088616;28;9187;-78
2022/11/19 13:56:42;;;;;;;;;0.67;0.67;;;;;;;;5089023;28;9892;-78
2022/11/19 13:59:25;;;;;;;;;0.00;0.00;;;;;;;;5086959;28;9255;-78
2022/11/19 14:02:19;;;;;;;;;0.00;0.00;;;;;;;;5091146;28;9268;-78
2022/11/19 14:05:07;;;;;;;;;0.00;0.00;;;;;;;;5088154;28;9082;-78
2022/11/19 14:07:51;;;;;;;;;0.00;0.00;;;;;;;;5091009;28;9173;-78
2022/11/19 14:10:24;;;;;;;;;0.00;0.00;;;;;;;;5088457;28;9237;-77
2022/11/19 14:13:03;;;;;;;;;0.00;0.00;;;;;;;;5069613;28;9256;-78
2022/11/19 14:27:44;;;;;;;;;0.00;0.00;;;;;;;;5082697;28;9273;-78
2022/11/19 14:30:22;;;;;;;;;0.33;0.00;;;;;;;;5090639;28;9289;-78
2022/11/19 14:32:51;;;;;;;;;0.00;0.00;;;;;;;;5087062;28;9314;-78
2022/11/19 14:35:36;;;;;;;;;1.00;1.00;;;;;;;;5085814;28;10109;-78
2022/11/19 14:38:37;;;;;;;;;0.00;0.00;;;;;;;;5067630;28;9399;-78
2022/11/19 14:41:30;;;;;;;;;1.00;1.00;;;;;;;;5090469;28;9124;-78
2022/11/19 14:44:08;;;;;;;;;0.67;0.00;;;;;;;;5072517;28;9266;-78
2022/11/19 14:46:43;;;;;;;;;1.00;1.00;;;;;;;;5088392;28;9324;-78
2022/11/19 14:49:29;;;;;;;;;1.00;1.00;;;;;;;;5086089;28;10040;-78
2022/11/19 14:51:58;;;;;;;;;1.00;1.00;;;;;;;;5083267;28;9257;-78
2022/11/19 14:54:33;;;;;;;;;1.33;0.67;;;;;;;;5085561;28;9085;-78
2022/11/19 14:57:16;;;;;;;;;0.00;0.00;;;;;;;;5083261;28;9233;-78
2022/11/19 14:59:48;;;;;;;;;1.33;1.00;;;;;;;;5086655;28;9167;-78
2022/11/19 15:02:22;;;;;;;;;1.00;1.00;;;;;;;;5074549;28;9189;-78
2022/11/19 15:04:59;;;;;;;;;1.00;1.00;;;;;;;;5088638;28;9067;-79
2022/11/19 15:07:36;;;;;;;;;1.00;1.00;;;;;;;;5087920;28;9173;-79
2022/11/19 15:10:26;;;;;;;;;1.00;1.00;;;;;;;;5085336;28;9031;-78
2022/11/19 15:13:28;;;;;;;;;0.00;0.00;;;;;;;;5089355;28;9020;-79
2022/11/19 15:16:03;;;;;;;;;4.00;2.33;;;;;;;;5086428;28;8919;-79
2022/11/19 15:19:17;;;;;;;;;2.00;2.00;;;;;;;;5091256;28;8927;-79
2022/11/19 15:22:12;;;;;;;;;2.00;2.00;;;;;;;;5088261;28;8953;-79
2022/11/19 15:24:52;;;;;;;;;1.00;1.00;;;;;;;;5086948;28;8987;-80
2022/11/19 15:27:31;;;;;;;;;2.00;2.00;;;;;;;;5083283;28;8892;-78
2022/11/19 15:30:06;;;;;;;;;1.00;1.00;;;;;;;;5090902;28;9203;-79
2022/11/19 15:32:50;;;;;;;;;1.33;1.33;;;;;;;;5067317;28;9698;-78
2022/11/19 15:35:34;;;;;;;;;2.00;0.00;;;;;;;;5063861;28;9040;-79
2022/11/19 15:38:07;;;;;;;;;0.00;0.00;;;;;;;;5069175;28;9017;-79
2022/11/19 15:40:36;;;;;;;;;0.00;0.00;;;;;;;;5089278;28;9234;-78
2022/11/19 15:43:13;;;;;;;;;0.00;0.00;;;;;;;;5083823;28;9326;-78